Overview Statistics Trail Chart Weather Telemetry Raw packets
 

This is the latest recevied weather packets stored in our database for station/object HP1COO-13. If no packets are shown the sender has not sent any weather packets the latest 10 day(s).

<< 23 24 25 26 27 28 29 >>
Time Temp. Humidity Pressure Rain* Wind** Luminosity Snow
1788279208 30° C 80% 1011 hPa 0 mm - - -
1788278575 30.56° C 80% 1011.1 hPa 0 mm - - -
1788277945 31.67° C 76% 1011.1 hPa 0 mm - - -
1788277309 31.67° C 71% 1011 hPa 0 mm - - -
1788276676 32.22° C 72% 1011.1 hPa 0 mm - - -
1788276043 31.11° C 76% 1011.2 hPa 0 mm - - -
1788275410 30.56° C 76% 1011.1 hPa 0 mm - - -
1788274777 30.56° C 77% 1011 hPa 0 mm - - -
1788274144 30.56° C 77% 1011.1 hPa 0 mm - - -
1788272878 30° C 80% 1010.9 hPa 0 mm - - -
1788272245 30° C 80% 1011 hPa 0 mm - - -
1788271612 30° C 79% 1010.8 hPa 0 mm - - -
1788270979 29.44° C 81% 1010.6 hPa 0 mm - - -
1788269713 28.89° C 82% 1010.6 hPa 0 mm - - -
1788269080 27.78° C 87% 1010.6 hPa 0 mm - - -
1788268447 27.78° C 88% 1010.8 hPa 0 mm - - -
1788267814 27.78° C 89% 1010.5 hPa 0 mm - - -
1788267181 27.22° C 89% 1010.5 hPa 0 mm - - -
1788266548 27.22° C 89% 1010.3 hPa 0 mm - - -
1788265915 27.22° C 90% 1010.3 hPa 0 mm - - -
1788265282 27.22° C 90% 1010.2 hPa 0 mm - - -
1788264026 25.56° C 97% 1010 hPa 0 mm - - -
1788263383 25° C 99% 1010 hPa 0 mm - - -
1788262750 25° C 99% 1009.7 hPa 0 mm - - -
1788262117 25° C 99% 1009.7 hPa 0 mm - - -

* Rain latest hour (hover to see other rain measurements)
** Current wind speed in m/s (hover to see current wind gust speed)